sensor_id;sensor_type;location;lat;lon;timestamp;temperature;humidity
48946;DHT22;34999;50.940;3.998;2023-02-05T00:00:20;7.70;99.90
48946;DHT22;34999;50.940;3.998;2023-02-05T00:03:06;7.70;99.90
48946;DHT22;34999;50.940;3.998;2023-02-05T00:05:34;7.70;99.90
48946;DHT22;34999;50.940;3.998;2023-02-05T00:08:03;7.70;99.90
48946;DHT22;34999;50.940;3.998;2023-02-05T00:10:31;7.70;99.90
48946;DHT22;34999;50.940;3.998;2023-02-05T00:13:00;7.70;99.90
48946;DHT22;34999;50.940;3.998;2023-02-05T00:15:30;7.70;99.90
48946;DHT22;34999;50.940;3.998;2023-02-05T00:17:58;7.60;99.90
48946;DHT22;34999;50.940;3.998;2023-02-05T00:20:29;7.60;99.90
48946;DHT22;34999;50.940;3.998;2023-02-05T00:22:57;7.60;99.90
48946;DHT22;34999;50.940;3.998;2023-02-05T00:25:25;7.60;99.90
48946;DHT22;34999;50.940;3.998;2023-02-05T00:27:54;7.60;99.90
48946;DHT22;34999;50.940;3.998;2023-02-05T00:30:22;7.60;99.90
48946;DHT22;34999;50.940;3.998;2023-02-05T00:32:51;7.60;99.90
48946;DHT22;34999;50.940;3.998;2023-02-05T00:35:20;7.60;99.90
48946;DHT22;34999;50.940;3.998;2023-02-05T00:37:48;7.60;99.90
48946;DHT22;34999;50.940;3.998;2023-02-05T00:40:17;7.60;99.90
48946;DHT22;34999;50.940;3.998;2023-02-05T00:42:45;7.50;99.90
48946;DHT22;34999;50.940;3.998;2023-02-05T00:45:14;7.60;99.90
48946;DHT22;34999;50.940;3.998;2023-02-05T00:47:42;7.60;99.90
48946;DHT22;34999;50.940;3.998;2023-02-05T00:50:12;7.50;99.90
48946;DHT22;34999;50.940;3.998;2023-02-05T00:52:40;7.60;99.90
48946;DHT22;34999;50.940;3.998;2023-02-05T00:55:09;7.60;99.90
48946;DHT22;34999;50.940;3.998;2023-02-05T00:57:38;7.60;99.90
48946;DHT22;34999;50.940;3.998;2023-02-05T01:00:07;7.50;99.90
48946;DHT22;34999;50.940;3.998;2023-02-05T01:02:36;7.50;99.90
48946;DHT22;34999;50.940;3.998;2023-02-05T01:05:06;7.50;99.90
48946;DHT22;34999;50.940;3.998;2023-02-05T01:07:35;7.50;99.90
48946;DHT22;34999;50.940;3.998;2023-02-05T01:10:05;7.60;99.90
48946;DHT22;34999;50.940;3.998;2023-02-05T01:12:33;7.60;99.90
48946;DHT22;34999;50.940;3.998;2023-02-05T01:15:04;7.50;99.90
48946;DHT22;34999;50.940;3.998;2023-02-05T01:17:33;7.50;99.90
48946;DHT22;34999;50.940;3.998;2023-02-05T01:20:02;7.50;99.90
48946;DHT22;34999;50.940;3.998;2023-02-05T01:22:31;7.50;99.90
48946;DHT22;34999;50.940;3.998;2023-02-05T01:25:01;7.50;99.90
48946;DHT22;34999;50.940;3.998;2023-02-05T01:27:31;7.50;99.90
48946;DHT22;34999;50.940;3.998;2023-02-05T01:29:59;7.50;99.90
48946;DHT22;34999;50.940;3.998;2023-02-05T01:32:28;7.50;99.90
48946;DHT22;34999;50.940;3.998;2023-02-05T01:34:56;7.50;99.90
48946;DHT22;34999;50.940;3.998;2023-02-05T01:37:25;7.50;99.90
48946;DHT22;34999;50.940;3.998;2023-02-05T01:39:53;7.50;99.90
48946;DHT22;34999;50.940;3.998;2023-02-05T01:42:24;7.50;99.90
48946;DHT22;34999;50.940;3.998;2023-02-05T01:48:00;7.50;99.90
48946;DHT22;34999;50.940;3.998;2023-02-05T01:50:32;7.50;99.90
48946;DHT22;34999;50.940;3.998;2023-02-05T01:53:04;7.50;99.90
48946;DHT22;34999;50.940;3.998;2023-02-05T01:55:34;7.50;99.90
48946;DHT22;34999;50.940;3.998;2023-02-05T01:58:06;7.50;99.90
48946;DHT22;34999;50.940;3.998;2023-02-05T02:00:35;7.40;99.90
48946;DHT22;34999;50.940;3.998;2023-02-05T02:03:04;7.40;99.90
48946;DHT22;34999;50.940;3.998;2023-02-05T02:05:32;7.50;99.90
48946;DHT22;34999;50.940;3.998;2023-02-05T02:08:01;7.50;99.90
48946;DHT22;34999;50.940;3.998;2023-02-05T02:10:31;7.50;99.90
48946;DHT22;34999;50.940;3.998;2023-02-05T02:13:01;7.50;99.90
48946;DHT22;34999;50.940;3.998;2023-02-05T02:15:31;7.40;99.90
48946;DHT22;34999;50.940;3.998;2023-02-05T02:18:01;7.40;99.90
48946;DHT22;34999;50.940;3.998;2023-02-05T02:20:46;7.40;99.90
48946;DHT22;34999;50.940;3.998;2023-02-05T02:23:23;7.40;99.90
48946;DHT22;34999;50.940;3.998;2023-02-05T02:26:08;7.40;99.90
48946;DHT22;34999;50.940;3.998;2023-02-05T02:28:43;7.30;99.90
48946;DHT22;34999;50.940;3.998;2023-02-05T02:31:17;7.30;99.90
48946;DHT22;34999;50.940;3.998;2023-02-05T02:33:54;7.30;99.90
48946;DHT22;34999;50.940;3.998;2023-02-05T02:36:28;7.30;99.90
48946;DHT22;34999;50.940;3.998;2023-02-05T02:39:02;7.30;99.90
48946;DHT22;34999;50.940;3.998;2023-02-05T02:41:39;7.30;99.90
48946;DHT22;34999;50.940;3.998;2023-02-05T02:44:11;7.30;99.90
48946;DHT22;34999;50.940;3.998;2023-02-05T02:46:45;7.30;99.90
48946;DHT22;34999;50.940;3.998;2023-02-05T02:49:17;7.30;99.90
48946;DHT22;34999;50.940;3.998;2023-02-05T02:51:49;7.30;99.90
48946;DHT22;34999;50.940;3.998;2023-02-05T02:54:20;7.30;99.90
48946;DHT22;34999;50.940;3.998;2023-02-05T02:56:50;7.30;99.90
48946;DHT22;34999;50.940;3.998;2023-02-05T02:59:23;7.30;99.90
48946;DHT22;34999;50.940;3.998;2023-02-05T03:01:55;7.20;99.90
48946;DHT22;34999;50.940;3.998;2023-02-05T03:04:27;7.20;99.90
48946;DHT22;34999;50.940;3.998;2023-02-05T03:07:02;7.20;99.90
48946;DHT22;34999;50.940;3.998;2023-02-05T03:09:38;7.20;99.90
48946;DHT22;34999;50.940;3.998;2023-02-05T03:12:09;7.20;99.90
48946;DHT22;34999;50.940;3.998;2023-02-05T03:14:41;7.10;99.90
48946;DHT22;34999;50.940;3.998;2023-02-05T03:17:10;7.10;99.90
48946;DHT22;34999;50.940;3.998;2023-02-05T03:19:45;7.10;99.90
48946;DHT22;34999;50.940;3.998;2023-02-05T03:22:15;7.10;99.90
48946;DHT22;34999;50.940;3.998;2023-02-05T03:24:44;7.10;99.90
48946;DHT22;34999;50.940;3.998;2023-02-05T03:27:12;7.10;99.90
48946;DHT22;34999;50.940;3.998;2023-02-05T03:29:42;7.10;99.90
48946;DHT22;34999;50.940;3.998;2023-02-05T03:32:19;7.20;99.90
48946;DHT22;34999;50.940;3.998;2023-02-05T03:34:54;7.10;99.90
48946;DHT22;34999;50.940;3.998;2023-02-05T03:37:33;7.10;99.90
48946;DHT22;34999;50.940;3.998;2023-02-05T03:40:13;7.20;99.90
48946;DHT22;34999;50.940;3.998;2023-02-05T03:42:50;7.20;99.90
48946;DHT22;34999;50.940;3.998;2023-02-05T03:45:42;7.20;99.90
48946;DHT22;34999;50.940;3.998;2023-02-05T03:48:22;7.20;99.90
48946;DHT22;34999;50.940;3.998;2023-02-05T03:51:02;7.20;99.90
48946;DHT22;34999;50.940;3.998;2023-02-05T03:53:37;7.20;99.90
48946;DHT22;34999;50.940;3.998;2023-02-05T03:56:09;7.20;99.90
48946;DHT22;34999;50.940;3.998;2023-02-05T03:58:41;7.20;99.90
48946;DHT22;34999;50.940;3.998;2023-02-05T04:01:12;7.20;99.90
48946;DHT22;34999;50.940;3.998;2023-02-05T04:03:41;7.20;99.90
48946;DHT22;34999;50.940;3.998;2023-02-05T04:06:09;7.20;99.90
48946;DHT22;34999;50.940;3.998;2023-02-05T04:08:37;7.20;99.90
48946;DHT22;34999;50.940;3.998;2023-02-05T04:11:06;7.20;99.90
48946;DHT22;34999;50.940;3.998;2023-02-05T04:13:35;7.20;99.90
48946;DHT22;34999;50.940;3.998;2023-02-05T04:16:45;7.30;99.90
48946;DHT22;34999;50.940;3.998;2023-02-05T04:19:53;7.20;99.90
48946;DHT22;34999;50.940;3.998;2023-02-05T04:23:01;7.20;99.90
48946;DHT22;34999;50.940;3.998;2023-02-05T04:26:10;7.20;99.90
48946;DHT22;34999;50.940;3.998;2023-02-05T04:29:18;7.30;99.90
48946;DHT22;34999;50.940;3.998;2023-02-05T04:32:28;7.30;99.90
48946;DHT22;34999;50.940;3.998;2023-02-05T04:35:37;7.20;99.90
48946;DHT22;34999;50.940;3.998;2023-02-05T04:38:45;7.20;99.90
48946;DHT22;34999;50.940;3.998;2023-02-05T04:41:54;7.20;99.90
48946;DHT22;34999;50.940;3.998;2023-02-05T04:45:02;7.20;99.90
48946;DHT22;34999;50.940;3.998;2023-02-05T04:48:13;7.20;99.90
48946;DHT22;34999;50.940;3.998;2023-02-05T04:51:21;7.10;99.90
48946;DHT22;34999;50.940;3.998;2023-02-05T04:54:29;7.10;99.90
48946;DHT22;34999;50.940;3.998;2023-02-05T04:57:38;7.10;99.90
48946;DHT22;34999;50.940;3.998;2023-02-05T05:00:46;7.00;99.90
48946;DHT22;34999;50.940;3.998;2023-02-05T05:03:56;7.00;99.90
48946;DHT22;34999;50.940;3.998;2023-02-05T05:06:38;7.00;99.90
48946;DHT22;34999;50.940;3.998;2023-02-05T05:09:49;7.00;99.90
48946;DHT22;34999;50.940;3.998;2023-02-05T05:12:58;6.90;99.90
48946;DHT22;34999;50.940;3.998;2023-02-05T05:16:07;6.90;99.90
48946;DHT22;34999;50.940;3.998;2023-02-05T05:19:18;6.90;99.90
48946;DHT22;34999;50.940;3.998;2023-02-05T05:22:26;6.90;99.90
48946;DHT22;34999;50.940;3.998;2023-02-05T05:25:40;7.00;99.90
48946;DHT22;34999;50.940;3.998;2023-02-05T05:28:52;7.00;99.90
48946;DHT22;34999;50.940;3.998;2023-02-05T05:32:01;7.00;99.90
48946;DHT22;34999;50.940;3.998;2023-02-05T05:35:11;7.00;99.90
48946;DHT22;34999;50.940;3.998;2023-02-05T05:38:19;7.00;99.90
48946;DHT22;34999;50.940;3.998;2023-02-05T05:41:27;7.00;99.90
48946;DHT22;34999;50.940;3.998;2023-02-05T05:44:53;7.00;99.90
48946;DHT22;34999;50.940;3.998;2023-02-05T05:48:01;7.00;99.90
48946;DHT22;34999;50.940;3.998;2023-02-05T05:51:11;7.00;99.90
48946;DHT22;34999;50.940;3.998;2023-02-05T05:54:20;7.10;99.90
48946;DHT22;34999;50.940;3.998;2023-02-05T05:57:28;7.10;99.90
48946;DHT22;34999;50.940;3.998;2023-02-05T06:00:38;7.10;99.90
48946;DHT22;34999;50.940;3.998;2023-02-05T06:03:46;7.10;99.90
48946;DHT22;34999;50.940;3.998;2023-02-05T06:06:56;7.20;99.90
48946;DHT22;34999;50.940;3.998;2023-02-05T06:10:05;7.20;99.90
48946;DHT22;34999;50.940;3.998;2023-02-05T06:13:14;7.30;99.90
48946;DHT22;34999;50.940;3.998;2023-02-05T06:16:22;7.20;99.90
48946;DHT22;34999;50.940;3.998;2023-02-05T06:19:30;7.30;99.90
48946;DHT22;34999;50.940;3.998;2023-02-05T06:22:40;7.20;99.90
48946;DHT22;34999;50.940;3.998;2023-02-05T06:25:49;7.20;99.90
48946;DHT22;34999;50.940;3.998;2023-02-05T06:28:56;7.20;99.90
48946;DHT22;34999;50.940;3.998;2023-02-05T06:32:07;7.10;99.90
48946;DHT22;34999;50.940;3.998;2023-02-05T06:35:14;7.00;99.90
48946;DHT22;34999;50.940;3.998;2023-02-05T06:38:22;7.00;99.90
48946;DHT22;34999;50.940;3.998;2023-02-05T06:41:30;7.00;99.90
48946;DHT22;34999;50.940;3.998;2023-02-05T06:44:37;6.90;99.90
48946;DHT22;34999;50.940;3.998;2023-02-05T06:47:44;6.80;99.90
48946;DHT22;34999;50.940;3.998;2023-02-05T06:50:51;6.80;99.90
48946;DHT22;34999;50.940;3.998;2023-02-05T06:54:00;6.70;99.90
48946;DHT22;34999;50.940;3.998;2023-02-05T06:57:07;6.60;99.90
48946;DHT22;34999;50.940;3.998;2023-02-05T07:00:15;6.40;99.90
48946;DHT22;34999;50.940;3.998;2023-02-05T07:03:22;6.40;99.90
48946;DHT22;34999;50.940;3.998;2023-02-05T07:06:28;6.20;99.90
48946;DHT22;34999;50.940;3.998;2023-02-05T07:09:37;6.10;99.90
48946;DHT22;34999;50.940;3.998;2023-02-05T07:12:43;6.10;99.90
48946;DHT22;34999;50.940;3.998;2023-02-05T07:15:53;6.10;99.90
48946;DHT22;34999;50.940;3.998;2023-02-05T07:18:59;6.20;99.90
48946;DHT22;34999;50.940;3.998;2023-02-05T07:22:07;6.30;99.90
48946;DHT22;34999;50.940;3.998;2023-02-05T07:25:17;6.30;99.90
48946;DHT22;34999;50.940;3.998;2023-02-05T07:28:24;6.40;99.90
48946;DHT22;34999;50.940;3.998;2023-02-05T07:31:30;6.40;99.90
48946;DHT22;34999;50.940;3.998;2023-02-05T07:34:38;6.50;99.90
48946;DHT22;34999;50.940;3.998;2023-02-05T07:37:44;6.40;99.90
48946;DHT22;34999;50.940;3.998;2023-02-05T07:40:32;6.50;99.90
48946;DHT22;34999;50.940;3.998;2023-02-05T07:43:19;6.60;99.90
48946;DHT22;34999;50.940;3.998;2023-02-05T07:46:09;6.60;99.90
48946;DHT22;34999;50.940;3.998;2023-02-05T07:48:56;6.70;99.90
48946;DHT22;34999;50.940;3.998;2023-02-05T07:51:43;6.70;99.90
48946;DHT22;34999;50.940;3.998;2023-02-05T07:54:30;6.70;99.90
48946;DHT22;34999;50.940;3.998;2023-02-05T07:57:18;6.70;99.90
48946;DHT22;34999;50.940;3.998;2023-02-05T08:00:09;6.80;99.90
48946;DHT22;34999;50.940;3.998;2023-02-05T08:02:56;6.80;99.90
48946;DHT22;34999;50.940;3.998;2023-02-05T08:05:42;6.80;99.90
48946;DHT22;34999;50.940;3.998;2023-02-05T08:08:29;6.90;99.90
48946;DHT22;34999;50.940;3.998;2023-02-05T08:11:17;7.00;99.90
48946;DHT22;34999;50.940;3.998;2023-02-05T08:14:05;7.20;99.90
48946;DHT22;34999;50.940;3.998;2023-02-05T08:16:52;7.30;99.90
48946;DHT22;34999;50.940;3.998;2023-02-05T08:19:39;7.30;99.90
48946;DHT22;34999;50.940;3.998;2023-02-05T08:22:26;7.30;99.90
48946;DHT22;34999;50.940;3.998;2023-02-05T08:25:13;7.40;99.90
48946;DHT22;34999;50.940;3.998;2023-02-05T08:28:00;7.40;99.90
48946;DHT22;34999;50.940;3.998;2023-02-05T08:30:48;7.40;99.90
48946;DHT22;34999;50.940;3.998;2023-02-05T08:33:35;7.50;99.90
48946;DHT22;34999;50.940;3.998;2023-02-05T08:36:22;7.40;99.90
48946;DHT22;34999;50.940;3.998;2023-02-05T08:39:09;7.40;99.90
48946;DHT22;34999;50.940;3.998;2023-02-05T08:41:56;7.40;99.90
48946;DHT22;34999;50.940;3.998;2023-02-05T08:44:43;7.40;99.90
48946;DHT22;34999;50.940;3.998;2023-02-05T08:47:34;7.40;99.90
48946;DHT22;34999;50.940;3.998;2023-02-05T08:50:21;7.40;99.90
48946;DHT22;34999;50.940;3.998;2023-02-05T08:53:08;7.40;99.90
48946;DHT22;34999;50.940;3.998;2023-02-05T08:55:56;7.50;99.90
48946;DHT22;34999;50.940;3.998;2023-02-05T08:58:43;7.50;99.90
48946;DHT22;34999;50.940;3.998;2023-02-05T09:01:30;7.60;99.90
48946;DHT22;34999;50.940;3.998;2023-02-05T09:04:20;7.60;99.90
48946;DHT22;34999;50.940;3.998;2023-02-05T09:07:08;7.60;99.90
48946;DHT22;34999;50.940;3.998;2023-02-05T09:09:54;7.60;99.90
48946;DHT22;34999;50.940;3.998;2023-02-05T09:12:41;7.60;99.90
48946;DHT22;34999;50.940;3.998;2023-02-05T09:15:28;7.60;99.90
48946;DHT22;34999;50.940;3.998;2023-02-05T09:18:15;7.50;99.90
48946;DHT22;34999;50.940;3.998;2023-02-05T09:21:07;7.60;99.90
48946;DHT22;34999;50.940;3.998;2023-02-05T09:23:54;7.80;99.90
48946;DHT22;34999;50.940;3.998;2023-02-05T09:26:41;8.00;99.90
48946;DHT22;34999;50.940;3.998;2023-02-05T09:29:29;8.10;99.90
48946;DHT22;34999;50.940;3.998;2023-02-05T09:32:16;8.20;99.90
48946;DHT22;34999;50.940;3.998;2023-02-05T09:35:03;8.20;99.90
48946;DHT22;34999;50.940;3.998;2023-02-05T09:37:52;8.20;99.90
48946;DHT22;34999;50.940;3.998;2023-02-05T09:40:52;8.20;99.90
48946;DHT22;34999;50.940;3.998;2023-02-05T09:43:47;8.20;99.90
48946;DHT22;34999;50.940;3.998;2023-02-05T09:46:43;8.20;99.90
48946;DHT22;34999;50.940;3.998;2023-02-05T09:49:36;8.20;99.90
48946;DHT22;34999;50.940;3.998;2023-02-05T09:52:28;8.20;99.90
48946;DHT22;34999;50.940;3.998;2023-02-05T09:55:21;8.00;99.90
48946;DHT22;34999;50.940;3.998;2023-02-05T09:58:12;7.90;99.90
48946;DHT22;34999;50.940;3.998;2023-02-05T10:01:03;7.90;99.90
48946;DHT22;34999;50.940;3.998;2023-02-05T10:03:55;8.10;99.90
48946;DHT22;34999;50.940;3.998;2023-02-05T10:10:21;8.40;99.90
48946;DHT22;34999;50.940;3.998;2023-02-05T10:13:25;8.60;99.90
48946;DHT22;34999;50.940;3.998;2023-02-05T10:16:32;9.00;99.90
48946;DHT22;34999;50.940;3.998;2023-02-05T10:19:44;9.30;99.90
48946;DHT22;34999;50.940;3.998;2023-02-05T10:22:42;9.50;99.90
48946;DHT22;34999;50.940;3.998;2023-02-05T10:25:44;9.40;99.90
48946;DHT22;34999;50.940;3.998;2023-02-05T10:29:06;9.40;99.90
48946;DHT22;34999;50.940;3.998;2023-02-05T10:32:04;9.20;99.90
48946;DHT22;34999;50.940;3.998;2023-02-05T10:34:57;9.20;99.90
48946;DHT22;34999;50.940;3.998;2023-02-05T10:37:50;9.10;99.90
48946;DHT22;34999;50.940;3.998;2023-02-05T10:40:40;9.00;99.90
48946;DHT22;34999;50.940;3.998;2023-02-05T10:43:35;9.00;99.90
48946;DHT22;34999;50.940;3.998;2023-02-05T10:46:28;9.00;99.90
48946;DHT22;34999;50.940;3.998;2023-02-05T10:49:21;9.20;99.90
48946;DHT22;34999;50.940;3.998;2023-02-05T10:52:11;9.20;99.90
48946;DHT22;34999;50.940;3.998;2023-02-05T10:54:59;9.20;99.90
48946;DHT22;34999;50.940;3.998;2023-02-05T10:57:47;9.20;99.90
48946;DHT22;34999;50.940;3.998;2023-02-05T11:00:34;9.10;99.90
48946;DHT22;34999;50.940;3.998;2023-02-05T11:03:21;9.10;99.90
48946;DHT22;34999;50.940;3.998;2023-02-05T11:06:10;9.40;99.90
48946;DHT22;34999;50.940;3.998;2023-02-05T11:08:57;9.80;99.90
48946;DHT22;34999;50.940;3.998;2023-02-05T11:11:50;9.90;99.90
48946;DHT22;34999;50.940;3.998;2023-02-05T11:14:40;9.80;99.90
48946;DHT22;34999;50.940;3.998;2023-02-05T11:17:32;9.90;99.90
48946;DHT22;34999;50.940;3.998;2023-02-05T11:20:31;10.00;99.90
48946;DHT22;34999;50.940;3.998;2023-02-05T11:23:21;10.10;99.90
48946;DHT22;34999;50.940;3.998;2023-02-05T11:26:15;10.00;99.90
48946;DHT22;34999;50.940;3.998;2023-02-05T11:29:18;9.80;99.90
48946;DHT22;34999;50.940;3.998;2023-02-05T11:32:17;9.90;99.90
48946;DHT22;34999;50.940;3.998;2023-02-05T11:35:16;9.90;99.90
48946;DHT22;34999;50.940;3.998;2023-02-05T11:38:08;9.90;99.90
48946;DHT22;34999;50.940;3.998;2023-02-05T11:40:57;10.00;99.90
48946;DHT22;34999;50.940;3.998;2023-02-05T11:43:48;10.00;99.90
48946;DHT22;34999;50.940;3.998;2023-02-05T11:46:42;10.00;99.90
48946;DHT22;34999;50.940;3.998;2023-02-05T11:49:33;10.10;99.90
48946;DHT22;34999;50.940;3.998;2023-02-05T11:52:25;10.00;99.90
48946;DHT22;34999;50.940;3.998;2023-02-05T11:55:23;9.90;99.90
48946;DHT22;34999;50.940;3.998;2023-02-05T11:58:20;9.70;99.90
48946;DHT22;34999;50.940;3.998;2023-02-05T12:01:22;9.50;99.90
48946;DHT22;34999;50.940;3.998;2023-02-05T12:04:16;9.50;99.90
48946;DHT22;34999;50.940;3.998;2023-02-05T12:07:10;9.90;99.90
48946;DHT22;34999;50.940;3.998;2023-02-05T12:10:00;10.50;99.90
48946;DHT22;34999;50.940;3.998;2023-02-05T12:12:58;10.40;99.90
48946;DHT22;34999;50.940;3.998;2023-02-05T12:15:56;10.30;99.90
48946;DHT22;34999;50.940;3.998;2023-02-05T12:18:56;10.00;99.90
48946;DHT22;34999;50.940;3.998;2023-02-05T12:21:49;9.90;99.90
48946;DHT22;34999;50.940;3.998;2023-02-05T12:25:03;9.80;99.90
48946;DHT22;34999;50.940;3.998;2023-02-05T12:28:02;9.90;99.90
48946;DHT22;34999;50.940;3.998;2023-02-05T12:31:01;9.90;99.90
48946;DHT22;34999;50.940;3.998;2023-02-05T12:37:17;10.00;99.90
48946;DHT22;34999;50.940;3.998;2023-02-05T12:40:18;10.10;99.90
48946;DHT22;34999;50.940;3.998;2023-02-05T12:43:20;10.00;99.90
48946;DHT22;34999;50.940;3.998;2023-02-05T12:46:28;10.00;99.90
48946;DHT22;34999;50.940;3.998;2023-02-05T12:49:31;10.10;99.90
48946;DHT22;34999;50.940;3.998;2023-02-05T12:52:32;9.90;99.90
48946;DHT22;34999;50.940;3.998;2023-02-05T12:55:34;9.80;99.90
48946;DHT22;34999;50.940;3.998;2023-02-05T12:58:30;9.80;99.90
48946;DHT22;34999;50.940;3.998;2023-02-05T13:01:34;9.80;99.90
48946;DHT22;34999;50.940;3.998;2023-02-05T13:04:26;9.70;99.90
48946;DHT22;34999;50.940;3.998;2023-02-05T13:07:24;9.80;99.90
48946;DHT22;34999;50.940;3.998;2023-02-05T13:10:15;9.80;99.90
48946;DHT22;34999;50.940;3.998;2023-02-05T13:13:12;9.70;99.90
48946;DHT22;34999;50.940;3.998;2023-02-05T13:16:03;9.70;99.90
48946;DHT22;34999;50.940;3.998;2023-02-05T13:18:56;9.80;99.90
48946;DHT22;34999;50.940;3.998;2023-02-05T13:21:44;10.00;99.90
48946;DHT22;34999;50.940;3.998;2023-02-05T13:24:51;10.10;99.90
48946;DHT22;34999;50.940;3.998;2023-02-05T13:28:01;10.00;99.90
48946;DHT22;34999;50.940;3.998;2023-02-05T13:31:18;9.80;99.90
48946;DHT22;34999;50.940;3.998;2023-02-05T13:34:07;9.70;99.90
48946;DHT22;34999;50.940;3.998;2023-02-05T13:37:08;9.50;99.90
48946;DHT22;34999;50.940;3.998;2023-02-05T13:40:25;9.40;99.90
48946;DHT22;34999;50.940;3.998;2023-02-05T13:43:46;9.30;99.90
48946;DHT22;34999;50.940;3.998;2023-02-05T13:46:50;9.50;99.90
48946;DHT22;34999;50.940;3.998;2023-02-05T13:50:28;9.50;99.90
48946;DHT22;34999;50.940;3.998;2023-02-05T13:53:28;9.40;99.90
48946;DHT22;34999;50.940;3.998;2023-02-05T13:56:43;9.30;99.90
48946;DHT22;34999;50.940;3.998;2023-02-05T13:59:35;9.30;99.90
48946;DHT22;34999;50.940;3.998;2023-02-05T14:02:32;9.40;99.90
48946;DHT22;34999;50.940;3.998;2023-02-05T14:05:28;9.50;99.90
48946;DHT22;34999;50.940;3.998;2023-02-05T14:08:21;9.60;99.90
48946;DHT22;34999;50.940;3.998;2023-02-05T14:11:09;9.50;99.90
48946;DHT22;34999;50.940;3.998;2023-02-05T14:14:28;9.40;99.90
48946;DHT22;34999;50.940;3.998;2023-02-05T14:17:52;9.30;99.90
48946;DHT22;34999;50.940;3.998;2023-02-05T14:20:40;9.30;99.90
48946;DHT22;34999;50.940;3.998;2023-02-05T14:23:52;9.20;99.90
48946;DHT22;34999;50.940;3.998;2023-02-05T14:26:47;9.20;99.90
48946;DHT22;34999;50.940;3.998;2023-02-05T14:29:40;9.10;99.90
48946;DHT22;34999;50.940;3.998;2023-02-05T14:32:56;9.00;99.90
48946;DHT22;34999;50.940;3.998;2023-02-05T14:35:44;9.00;99.90
48946;DHT22;34999;50.940;3.998;2023-02-05T14:38:33;9.10;99.90
48946;DHT22;34999;50.940;3.998;2023-02-05T14:41:27;9.20;99.90
48946;DHT22;34999;50.940;3.998;2023-02-05T14:44:25;9.30;99.90
48946;DHT22;34999;50.940;3.998;2023-02-05T14:47:19;9.30;99.90
48946;DHT22;34999;50.940;3.998;2023-02-05T14:50:18;9.20;99.90
48946;DHT22;34999;50.940;3.998;2023-02-05T14:53:06;9.10;99.90
48946;DHT22;34999;50.940;3.998;2023-02-05T14:56:04;9.00;99.90
48946;DHT22;34999;50.940;3.998;2023-02-05T14:58:57;9.00;99.90
48946;DHT22;34999;50.940;3.998;2023-02-05T15:01:47;8.70;99.90
48946;DHT22;34999;50.940;3.998;2023-02-05T15:04:42;8.60;99.90
48946;DHT22;34999;50.940;3.998;2023-02-05T15:07:35;8.50;99.90
48946;DHT22;34999;50.940;3.998;2023-02-05T15:10:24;8.40;99.90
48946;DHT22;34999;50.940;3.998;2023-02-05T15:13:14;8.30;99.90
48946;DHT22;34999;50.940;3.998;2023-02-05T15:16:06;8.30;99.90
48946;DHT22;34999;50.940;3.998;2023-02-05T15:18:38;8.20;99.90
48946;DHT22;34999;50.940;3.998;2023-02-05T15:21:14;8.20;99.90
48946;DHT22;34999;50.940;3.998;2023-02-05T15:23:45;8.20;99.90
48946;DHT22;34999;50.940;3.998;2023-02-05T15:26:20;8.20;99.90
48946;DHT22;34999;50.940;3.998;2023-02-05T15:28:56;8.10;99.90
48946;DHT22;34999;50.940;3.998;2023-02-05T15:31:30;8.10;99.90
48946;DHT22;34999;50.940;3.998;2023-02-05T15:34:19;8.10;99.90
48946;DHT22;34999;50.940;3.998;2023-02-05T15:36:51;8.00;99.90
48946;DHT22;34999;50.940;3.998;2023-02-05T15:39:27;8.00;99.90
48946;DHT22;34999;50.940;3.998;2023-02-05T15:41:58;7.90;99.90
48946;DHT22;34999;50.940;3.998;2023-02-05T15:44:29;7.80;99.90
48946;DHT22;34999;50.940;3.998;2023-02-05T15:47:00;7.80;99.90
48946;DHT22;34999;50.940;3.998;2023-02-05T15:49:33;7.70;99.90
48946;DHT22;34999;50.940;3.998;2023-02-05T15:52:03;7.70;99.90
48946;DHT22;34999;50.940;3.998;2023-02-05T15:54:35;7.60;99.90
48946;DHT22;34999;50.940;3.998;2023-02-05T15:57:04;7.60;99.90
48946;DHT22;34999;50.940;3.998;2023-02-05T15:59:34;7.50;99.90
48946;DHT22;34999;50.940;3.998;2023-02-05T16:02:06;7.50;99.90
48946;DHT22;34999;50.940;3.998;2023-02-05T16:04:38;7.50;99.90
48946;DHT22;34999;50.940;3.998;2023-02-05T16:07:17;7.40;99.90
48946;DHT22;34999;50.940;3.998;2023-02-05T16:09:49;7.30;99.90
48946;DHT22;34999;50.940;3.998;2023-02-05T16:12:19;7.30;99.90
48946;DHT22;34999;50.940;3.998;2023-02-05T16:14:57;7.30;99.90
48946;DHT22;34999;50.940;3.998;2023-02-05T16:17:30;7.30;99.90
48946;DHT22;34999;50.940;3.998;2023-02-05T16:20:09;7.20;99.90
48946;DHT22;34999;50.940;3.998;2023-02-05T16:22:42;7.20;99.90
48946;DHT22;34999;50.940;3.998;2023-02-05T16:25:23;7.10;99.90
48946;DHT22;34999;50.940;3.998;2023-02-05T16:27:54;7.10;99.90
48946;DHT22;34999;50.940;3.998;2023-02-05T16:30:30;7.00;99.90
48946;DHT22;34999;50.940;3.998;2023-02-05T16:33:01;7.00;99.90
48946;DHT22;34999;50.940;3.998;2023-02-05T16:35:34;6.80;99.90
48946;DHT22;34999;50.940;3.998;2023-02-05T16:38:03;6.80;99.90
48946;DHT22;34999;50.940;3.998;2023-02-05T16:40:39;6.80;99.90
48946;DHT22;34999;50.940;3.998;2023-02-05T16:43:24;6.70;99.90
48946;DHT22;34999;50.940;3.998;2023-02-05T16:46:23;6.60;99.90
48946;DHT22;34999;50.940;3.998;2023-02-05T16:48:54;6.60;99.90
48946;DHT22;34999;50.940;3.998;2023-02-05T16:51:53;6.50;99.90
48946;DHT22;34999;50.940;3.998;2023-02-05T16:54:28;6.50;99.90
48946;DHT22;34999;50.940;3.998;2023-02-05T16:57:05;6.40;99.90
48946;DHT22;34999;50.940;3.998;2023-02-05T16:59:46;6.40;99.90
48946;DHT22;34999;50.940;3.998;2023-02-05T17:02:30;6.30;99.90
48946;DHT22;34999;50.940;3.998;2023-02-05T17:05:39;6.30;99.90
48946;DHT22;34999;50.940;3.998;2023-02-05T17:08:49;6.30;99.90
48946;DHT22;34999;50.940;3.998;2023-02-05T17:12:34;6.20;99.90
48946;DHT22;34999;50.940;3.998;2023-02-05T17:15:44;6.20;99.90
48946;DHT22;34999;50.940;3.998;2023-02-05T17:18:53;6.10;99.90
48946;DHT22;34999;50.940;3.998;2023-02-05T17:22:16;6.00;99.90
48946;DHT22;34999;50.940;3.998;2023-02-05T17:25:26;5.90;99.90
48946;DHT22;34999;50.940;3.998;2023-02-05T17:28:36;5.90;99.90
48946;DHT22;34999;50.940;3.998;2023-02-05T17:31:49;5.80;99.90
48946;DHT22;34999;50.940;3.998;2023-02-05T17:34:58;5.80;99.90
48946;DHT22;34999;50.940;3.998;2023-02-05T17:38:07;5.70;99.90
48946;DHT22;34999;50.940;3.998;2023-02-05T17:41:17;5.70;99.90
48946;DHT22;34999;50.940;3.998;2023-02-05T17:44:44;5.60;99.90
48946;DHT22;34999;50.940;3.998;2023-02-05T17:47:53;5.60;99.90
48946;DHT22;34999;50.940;3.998;2023-02-05T17:51:01;5.60;99.90
48946;DHT22;34999;50.940;3.998;2023-02-05T17:54:12;5.60;99.90
48946;DHT22;34999;50.940;3.998;2023-02-05T17:57:21;5.60;99.90
48946;DHT22;34999;50.940;3.998;2023-02-05T18:00:31;5.50;99.90
48946;DHT22;34999;50.940;3.998;2023-02-05T18:03:40;5.40;99.90
48946;DHT22;34999;50.940;3.998;2023-02-05T18:06:49;5.40;99.90
48946;DHT22;34999;50.940;3.998;2023-02-05T18:09:37;5.40;99.90
48946;DHT22;34999;50.940;3.998;2023-02-05T18:12:25;5.40;99.90
48946;DHT22;34999;50.940;3.998;2023-02-05T18:15:14;5.30;99.90
48946;DHT22;34999;50.940;3.998;2023-02-05T18:18:04;5.30;99.90